Time;durP1;ratioP1;P1;durP2;ratioP2;P2;SDS_P1;SDS_P2;PMS_P1;PMS_P2;Temp;Humidity;BMP_temperature;BMP_pressure;BME280_temperature;BME280_humidity;BME280_pressure;Samples;Min_cycle;Max_cycle;Signal;HPM_P1;HPM_P2
2022/11/04 00:01:34;;;;;;;1.53;1.40;;;;;;;;;;5070350;28;20471;-76
2022/11/04 00:04:02;;;;;;;1.30;1.30;;;;;;;;;;5069975;28;20876;-76
2022/11/04 00:06:29;;;;;;;1.60;1.50;;;;;;;;;;5070127;28;20468;-77
2022/11/04 00:08:57;;;;;;;1.43;1.43;;;;;;;;;;5070627;28;20808;-76
2022/11/04 00:14:10;;;;;;;2.10;2.00;;;;;;;;;;5058901;28;20432;-77
2022/11/04 00:19:23;;;;;;;1.87;1.30;;;;;;;;;;5070149;28;20965;-76
2022/11/04 00:30:07;;;;;;;2.07;1.97;;;;;;;;;;5070311;28;20953;-76
2022/11/04 00:35:21;;;;;;;1.83;1.73;;;;;;;;;;5070266;28;20907;-77
2022/11/04 00:37:48;;;;;;;1.40;1.40;;;;;;;;;;5070325;28;20433;-77
2022/11/04 00:40:16;;;;;;;1.47;1.37;;;;;;;;;;5070130;28;20447;-76
2022/11/04 00:42:44;;;;;;;1.20;1.20;;;;;;;;;;5069437;28;20487;-76
2022/11/04 00:45:11;;;;;;;1.37;1.30;;;;;;;;;;5070023;28;20453;-76
2022/11/04 00:47:38;;;;;;;1.47;1.40;;;;;;;;;;5070132;28;20441;-76
2022/11/04 00:50:06;;;;;;;1.50;1.40;;;;;;;;;;5069588;28;21011;-75
2022/11/04 00:52:34;;;;;;;1.47;1.37;;;;;;;;;;5070577;28;20530;-76
2022/11/04 00:55:01;;;;;;;1.33;1.33;;;;;;;;;;5071113;28;20456;-78
2022/11/04 00:57:28;;;;;;;1.57;1.40;;;;;;;;;;5072287;28;20472;-77
2022/11/04 00:59:55;;;;;;;1.27;1.20;;;;;;;;;;5075676;28;20455;-76
2022/11/04 01:02:22;;;;;;;1.70;1.40;;;;;;;;;;5090964;28;20536;-76
2022/11/04 01:04:49;;;;;;;1.50;1.40;;;;;;;;;;5088734;28;20429;-76
2022/11/04 01:07:16;;;;;;;1.73;1.63;;;;;;;;;;5083400;28;20459;-76
2022/11/04 01:09:45;;;;;;;4.80;3.90;;;;;;;;;;5080430;28;20463;-77
2022/11/04 01:12:12;;;;;;;1.43;1.40;;;;;;;;;;5090764;28;20563;-76
2022/11/04 01:14:39;;;;;;;1.80;1.70;;;;;;;;;;5060387;28;20433;-77
2022/11/04 01:17:06;;;;;;;1.60;1.47;;;;;;;;;;5054747;28;20448;-76
2022/11/04 01:19:33;;;;;;;1.50;1.30;;;;;;;;;;5054429;28;20451;-76
2022/11/04 01:22:00;;;;;;;1.50;1.40;;;;;;;;;;5054332;28;20469;-77
2022/11/04 01:24:27;;;;;;;2.03;1.20;;;;;;;;;;5054353;28;20481;-76
2022/11/04 01:26:56;;;;;;;1.40;1.30;;;;;;;;;;5056703;28;20456;-77
2022/11/04 01:29:23;;;;;;;1.47;1.37;;;;;;;;;;5058568;28;20961;-77
2022/11/04 01:31:50;;;;;;;1.37;1.37;;;;;;;;;;5058233;28;21012;-76
2022/11/04 01:34:17;;;;;;;1.53;1.43;;;;;;;;;;5055037;28;20445;-76
2022/11/04 01:36:44;;;;;;;1.40;1.40;;;;;;;;;;5054021;28;20450;-77
2022/11/04 01:39:12;;;;;;;2.53;1.30;;;;;;;;;;5053324;28;20452;-76
2022/11/04 01:41:39;;;;;;;1.53;1.43;;;;;;;;;;5052990;28;20441;-77
2022/11/04 01:44:21;;;;;;;1.40;1.30;;;;;;;;;;5053124;28;20473;-77
2022/11/04 01:46:51;;;;;;;1.57;1.47;;;;;;;;;;5053532;28;20437;-77
2022/11/04 01:49:24;;;;;;;2.10;1.30;;;;;;;;;;5055730;28;20936;-76
2022/11/04 01:51:52;;;;;;;1.40;1.40;;;;;;;;;;5053412;28;20461;-75
2022/11/04 01:54:19;;;;;;;1.53;1.47;;;;;;;;;;5052762;28;20968;-76
2022/11/04 01:56:46;;;;;;;1.87;1.77;;;;;;;;;;5053024;28;20937;-76
2022/11/04 01:59:17;;;;;;;1.30;1.30;;;;;;;;;;5053538;28;20441;-75
2022/11/04 02:01:44;;;;;;;1.13;1.13;;;;;;;;;;5053252;28;20461;-76
2022/11/04 02:04:26;;;;;;;1.30;1.30;;;;;;;;;;5052215;28;20481;-76
2022/11/04 02:06:53;;;;;;;1.40;1.40;;;;;;;;;;5053068;28;20445;-76
2022/11/04 02:09:21;;;;;;;1.50;1.23;;;;;;;;;;5052875;28;20450;-75
2022/11/04 02:14:34;;;;;;;1.30;1.20;;;;;;;;;;5052210;28;20886;-77
2022/11/04 02:17:05;;;;;;;1.40;1.40;;;;;;;;;;5052607;28;20972;-77
2022/11/04 02:19:46;;;;;;;1.27;1.17;;;;;;;;;;5053087;28;20442;-77
2022/11/04 02:22:26;;;;;;;1.73;1.30;;;;;;;;;;5051210;28;20981;-76
2022/11/04 02:25:09;;;;;;;1.43;1.20;;;;;;;;;;5052257;28;20579;-76
2022/11/04 02:27:44;;;;;;;1.13;1.00;;;;;;;;;;5052501;28;20523;-77
2022/11/04 02:30:14;;;;;;;1.03;1.03;;;;;;;;;;5052882;28;20441;-76
2022/11/04 02:32:56;;;;;;;2.87;1.30;;;;;;;;;;5051600;28;20473;-76
2022/11/04 02:35:26;;;;;;;1.13;1.00;;;;;;;;;;5051541;28;20450;-76
2022/11/04 02:37:57;;;;;;;1.50;1.40;;;;;;;;;;5052634;28;20425;-76
2022/11/04 02:40:28;;;;;;;1.03;1.00;;;;;;;;;;5052432;28;20832;-76
2022/11/04 02:42:57;;;;;;;1.23;1.13;;;;;;;;;;5051983;28;20793;-77
2022/11/04 02:45:30;;;;;;;1.00;1.00;;;;;;;;;;5052380;28;20468;-76
2022/11/04 02:48:02;;;;;;;2.13;1.07;;;;;;;;;;5052181;28;20446;-76
2022/11/04 02:50:32;;;;;;;1.30;1.13;;;;;;;;;;5051900;28;20453;-76
2022/11/04 02:53:02;;;;;;;1.40;1.30;;;;;;;;;;5053049;28;20545;-76
2022/11/04 02:55:30;;;;;;;1.37;1.03;;;;;;;;;;5052059;28;20438;-76
2022/11/04 02:58:00;;;;;;;1.40;1.10;;;;;;;;;;5051853;28;20442;-77
2022/11/04 03:00:29;;;;;;;1.00;1.00;;;;;;;;;;5052295;28;20442;-77
2022/11/04 03:02:58;;;;;;;1.00;0.90;;;;;;;;;;5051187;28;20838;-76
2022/11/04 03:05:27;;;;;;;1.50;1.40;;;;;;;;;;5052018;28;20449;-76
2022/11/04 03:07:56;;;;;;;1.07;1.07;;;;;;;;;;5052349;28;20453;-75
2022/11/04 03:10:26;;;;;;;1.40;1.30;;;;;;;;;;5051827;28;20446;-76
2022/11/04 03:12:56;;;;;;;1.80;0.83;;;;;;;;;;5059810;28;20991;-76
2022/11/04 03:15:26;;;;;;;2.90;1.30;;;;;;;;;;5071568;28;20452;-77
2022/11/04 03:17:57;;;;;;;1.20;1.20;;;;;;;;;;5071962;28;20441;-76
2022/11/04 03:20:27;;;;;;;1.37;1.27;;;;;;;;;;5072800;28;20445;-76
2022/11/04 03:22:59;;;;;;;2.63;1.37;;;;;;;;;;5071674;28;20460;-76
2022/11/04 03:25:28;;;;;;;1.30;1.20;;;;;;;;;;5071947;28;20437;-76
2022/11/04 03:28:00;;;;;;;1.17;1.07;;;;;;;;;;5071154;28;20444;-76
2022/11/04 03:30:27;;;;;;;4.13;0.97;;;;;;;;;;5071557;28;20463;-76
2022/11/04 03:32:59;;;;;;;0.87;0.87;;;;;;;;;;5070491;28;20671;-77
2022/11/04 03:35:28;;;;;;;0.90;0.80;;;;;;;;;;5071198;28;20500;-76
2022/11/04 03:37:55;;;;;;;1.00;0.97;;;;;;;;;;5071143;28;20451;-76
2022/11/04 03:40:22;;;;;;;1.50;1.20;;;;;;;;;;5071050;28;20449;-76
2022/11/04 03:42:52;;;;;;;1.70;1.17;;;;;;;;;;5070388;28;20463;-76
2022/11/04 03:45:20;;;;;;;3.17;1.07;;;;;;;;;;5070974;28;21210;-76
2022/11/04 03:47:47;;;;;;;0.90;0.90;;;;;;;;;;5070985;28;20452;-76
2022/11/04 03:50:20;;;;;;;1.10;1.03;;;;;;;;;;5071298;28;20441;-76
2022/11/04 03:52:47;;;;;;;1.40;1.30;;;;;;;;;;5070331;28;20986;-76
2022/11/04 03:55:14;;;;;;;1.40;1.30;;;;;;;;;;5070979;28;20437;-76
2022/11/04 03:57:46;;;;;;;1.33;0.97;;;;;;;;;;5071408;28;20445;-77
2022/11/04 04:00:14;;;;;;;1.13;1.13;;;;;;;;;;5071417;28;20433;-75
2022/11/04 04:02:45;;;;;;;1.47;1.37;;;;;;;;;;5070563;28;20463;-76
2022/11/04 04:05:14;;;;;;;1.20;1.10;;;;;;;;;;5093539;28;20480;-75
2022/11/04 04:07:47;;;;;;;1.67;1.30;;;;;;;;;;5090811;28;20441;-75
2022/11/04 04:13:02;;;;;;;1.30;1.20;;;;;;;;;;5080995;28;20452;-76
2022/11/04 04:15:31;;;;;;;1.17;1.17;;;;;;;;;;5073833;28;20451;-77
2022/11/04 04:18:00;;;;;;;1.10;1.10;;;;;;;;;;5071586;28;20449;-76
2022/11/04 04:20:29;;;;;;;5.43;1.40;;;;;;;;;;5071511;28;20445;-76
2022/11/04 04:22:59;;;;;;;3.10;1.20;;;;;;;;;;5070290;28;20484;-76
2022/11/04 04:28:13;;;;;;;1.37;1.20;;;;;;;;;;5075155;28;20416;-76
2022/11/04 04:30:42;;;;;;;1.00;1.00;;;;;;;;;;5073076;28;20934;-76
2022/11/04 04:33:10;;;;;;;1.37;1.10;;;;;;;;;;5071387;28;20469;-76
2022/11/04 04:35:43;;;;;;;1.77;1.37;;;;;;;;;;5073292;28;20470;-77
2022/11/04 04:46:30;;;;;;;1.33;1.20;;;;;;;;;;5041258;28;20437;-75
2022/11/04 04:49:04;;;;;;;1.80;1.47;;;;;;;;;;5074907;28;20454;-75
2022/11/04 04:51:31;;;;;;;1.57;1.20;;;;;;;;;;5072456;28;20440;-76
2022/11/04 04:53:59;;;;;;;1.87;1.50;;;;;;;;;;5075573;28;20471;-76
2022/11/04 04:56:27;;;;;;;1.33;1.20;;;;;;;;;;5075238;28;20432;-76
2022/11/04 04:58:54;;;;;;;1.10;1.10;;;;;;;;;;5075410;28;20444;-76
2022/11/04 05:01:21;;;;;;;1.40;1.30;;;;;;;;;;5073967;28;20445;-76
2022/11/04 05:03:48;;;;;;;3.27;1.17;;;;;;;;;;5069298;28;20484;-75
2022/11/04 05:06:15;;;;;;;3.93;1.90;;;;;;;;;;5071472;28;20445;-75
2022/11/04 05:08:42;;;;;;;5.10;1.40;;;;;;;;;;5073093;28;20459;-76
2022/11/04 05:11:10;;;;;;;1.73;1.20;;;;;;;;;;5069994;28;20454;-75
2022/11/04 05:13:37;;;;;;;5.43;1.60;;;;;;;;;;5054086;28;21009;-76
2022/11/04 05:16:05;;;;;;;1.90;1.50;;;;;;;;;;5051872;28;20949;-76
2022/11/04 05:18:32;;;;;;;4.27;1.30;;;;;;;;;;5056162;28;20456;-75
2022/11/04 05:20:59;;;;;;;3.33;1.50;;;;;;;;;;5055906;28;20465;-76
2022/11/04 05:23:26;;;;;;;1.60;1.40;;;;;;;;;;5056311;28;20469;-77
2022/11/04 05:25:53;;;;;;;1.60;1.43;;;;;;;;;;5056662;28;20445;-76
2022/11/04 05:28:22;;;;;;;1.50;1.40;;;;;;;;;;5053058;28;20445;-76
2022/11/04 05:30:49;;;;;;;1.80;1.67;;;;;;;;;;5049521;28;20449;-76
2022/11/04 05:33:16;;;;;;;1.50;1.40;;;;;;;;;;5048897;28;20476;-76
2022/11/04 05:35:43;;;;;;;1.80;1.70;;;;;;;;;;5050246;28;20499;-76
2022/11/04 05:38:10;;;;;;;1.90;1.80;;;;;;;;;;5049081;28;20453;-77
2022/11/04 05:40:37;;;;;;;2.23;1.97;;;;;;;;;;5050016;28;20468;-77
2022/11/04 05:43:05;;;;;;;1.90;1.70;;;;;;;;;;5062347;28;20842;-76
2022/11/04 05:45:33;;;;;;;2.57;1.83;;;;;;;;;;5061960;28;20471;-76
2022/11/04 05:48:00;;;;;;;1.40;1.37;;;;;;;;;;5069384;28;20443;-76
2022/11/04 05:50:28;;;;;;;1.90;1.80;;;;;;;;;;5069539;28;20440;-76
2022/11/04 05:52:57;;;;;;;2.50;2.00;;;;;;;;;;5068945;28;20465;-76
2022/11/04 05:55:24;;;;;;;2.60;1.80;;;;;;;;;;5069420;28;20449;-76
2022/11/04 05:57:51;;;;;;;1.67;1.57;;;;;;;;;;5072680;28;20820;-76
2022/11/04 06:00:18;;;;;;;4.53;1.70;;;;;;;;;;5064746;28;20976;-76
2022/11/04 06:02:47;;;;;;;1.80;1.70;;;;;;;;;;5059822;28;20464;-76
2022/11/04 06:05:14;;;;;;;2.50;2.03;;;;;;;;;;5073383;28;20488;-77
2022/11/04 06:07:41;;;;;;;3.23;1.27;;;;;;;;;;5073427;28;20449;-76
2022/11/04 06:10:08;;;;;;;1.50;1.40;;;;;;;;;;5073519;28;20449;-76
2022/11/04 06:12:35;;;;;;;1.70;1.60;;;;;;;;;;5072618;28;20464;-75
2022/11/04 06:15:02;;;;;;;2.10;1.40;;;;;;;;;;5072819;28;20463;-76
2022/11/04 06:17:29;;;;;;;1.43;1.33;;;;;;;;;;5063625;28;20495;-77
2022/11/04 06:19:58;;;;;;;1.37;1.27;;;;;;;;;;5072851;28;20441;-76
2022/11/04 06:22:25;;;;;;;1.93;1.53;;;;;;;;;;5065513;28;20859;-76
2022/11/04 06:24:52;;;;;;;2.30;1.70;;;;;;;;;;5063808;28;20480;-76
2022/11/04 06:27:19;;;;;;;1.70;1.57;;;;;;;;;;5072959;28;20456;-76
2022/11/04 06:29:46;;;;;;;1.90;1.67;;;;;;;;;;5072817;28;21061;-76
2022/11/04 06:32:14;;;;;;;4.20;2.07;;;;;;;;;;5061296;28;20468;-76
2022/11/04 06:34:41;;;;;;;2.30;1.73;;;;;;;;;;5060806;28;20451;-76
2022/11/04 06:37:10;;;;;;;2.93;1.70;;;;;;;;;;5072552;28;20768;-76
2022/11/04 06:39:37;;;;;;;2.30;2.10;;;;;;;;;;5072555;28;20449;-76
2022/11/04 06:42:04;;;;;;;2.50;1.80;;;;;;;;;;5074935;28;21086;-76
2022/11/04 06:44:33;;;;;;;3.53;2.60;;;;;;;;;;5072277;28;20555;-75
2022/11/04 06:47:00;;;;;;;2.87;2.20;;;;;;;;;;5073878;28;20453;-77
2022/11/04 06:49:27;;;;;;;2.30;2.00;;;;;;;;;;5072923;28;20526;-76
2022/11/04 06:51:54;;;;;;;2.97;2.40;;;;;;;;;;5072713;28;20499;-75
2022/11/04 06:54:23;;;;;;;1.97;1.80;;;;;;;;;;5071892;28;20437;-76
2022/11/04 06:56:50;;;;;;;1.90;1.37;;;;;;;;;;5072650;28;20444;-76
2022/11/04 06:59:18;;;;;;;2.87;1.60;;;;;;;;;;5072827;28;20445;-75
2022/11/04 07:01:45;;;;;;;1.93;1.83;;;;;;;;;;5072897;28;20479;-76
2022/11/04 07:04:12;;;;;;;2.73;1.83;;;;;;;;;;5071295;28;20472;-76
2022/11/04 07:06:42;;;;;;;2.23;1.80;;;;;;;;;;5072242;28;20451;-77
2022/11/04 07:09:11;;;;;;;1.90;1.70;;;;;;;;;;5072052;28;20453;-77
2022/11/04 07:11:39;;;;;;;2.87;2.23;;;;;;;;;;5072209;28;20993;-76
2022/11/04 07:14:07;;;;;;;2.50;2.27;;;;;;;;;;5053365;28;20438;-75
2022/11/04 07:16:34;;;;;;;1.77;1.63;;;;;;;;;;5053043;28;20458;-76
2022/11/04 07:19:01;;;;;;;2.03;1.93;;;;;;;;;;5064564;28;20446;-75
2022/11/04 07:21:29;;;;;;;3.33;2.00;;;;;;;;;;5061390;28;21041;-76
2022/11/04 07:23:56;;;;;;;3.33;2.00;;;;;;;;;;5055690;28;20803;-76
2022/11/04 07:26:23;;;;;;;2.57;1.60;;;;;;;;;;5056074;28;20457;-75
2022/11/04 07:28:51;;;;;;;1.83;1.73;;;;;;;;;;5056541;28;20532;-77
2022/11/04 07:31:18;;;;;;;1.53;1.43;;;;;;;;;;5072127;28;20455;-75
2022/11/04 07:33:48;;;;;;;2.57;1.60;;;;;;;;;;5077111;28;20484;-76
2022/11/04 07:36:17;;;;;;;1.67;1.57;;;;;;;;;;5071212;28;20453;-75
2022/11/04 07:38:44;;;;;;;2.10;2.00;;;;;;;;;;5071669;28;20437;-76
2022/11/04 07:41:11;;;;;;;2.13;1.77;;;;;;;;;;5075905;28;20458;-75
2022/11/04 07:43:38;;;;;;;2.10;1.90;;;;;;;;;;5073756;28;20472;-76
2022/11/04 07:46:07;;;;;;;1.87;1.77;;;;;;;;;;5073683;28;20479;-76
2022/11/04 07:48:35;;;;;;;1.60;1.50;;;;;;;;;;5072641;28;20971;-77
2022/11/04 07:51:02;;;;;;;1.80;1.47;;;;;;;;;;5072499;28;20448;-76
2022/11/04 07:53:30;;;;;;;2.10;1.90;;;;;;;;;;5080242;28;20472;-78
2022/11/04 07:55:58;;;;;;;1.73;1.63;;;;;;;;;;5072447;28;20456;-76
2022/11/04 07:58:25;;;;;;;2.20;2.10;;;;;;;;;;5071391;28;20956;-77
2022/11/04 08:00:57;;;;;;;1.77;1.67;;;;;;;;;;5071396;28;20455;-77
2022/11/04 08:03:26;;;;;;;7.43;2.13;;;;;;;;;;5071077;28;20468;-76
2022/11/04 08:05:55;;;;;;;2.00;1.87;;;;;;;;;;5072527;28;20475;-77
2022/11/04 08:08:22;;;;;;;1.77;1.67;;;;;;;;;;5072772;28;20474;-76
2022/11/04 08:10:52;;;;;;;2.50;2.07;;;;;;;;;;5084767;28;20441;-76
2022/11/04 08:13:19;;;;;;;2.03;1.93;;;;;;;;;;5071860;28;20464;-77
2022/11/04 08:15:46;;;;;;;3.60;1.87;;;;;;;;;;5067586;28;20438;-76
2022/11/04 08:18:13;;;;;;;3.30;2.07;;;;;;;;;;5067043;28;20437;-76
2022/11/04 08:20:41;;;;;;;1.90;1.70;;;;;;;;;;5064277;28;20476;-77
2022/11/04 08:23:10;;;;;;;5.63;1.90;;;;;;;;;;5054276;28;20465;-76
2022/11/04 08:25:38;;;;;;;1.90;1.60;;;;;;;;;;5054114;28;20690;-76
2022/11/04 08:28:05;;;;;;;3.00;1.60;;;;;;;;;;5052155;28;20528;-77
2022/11/04 08:30:32;;;;;;;2.00;1.80;;;;;;;;;;5053405;28;20476;-76
2022/11/04 08:32:59;;;;;;;2.20;1.70;;;;;;;;;;5050915;28;20473;-76
2022/11/04 08:35:26;;;;;;;2.03;1.90;;;;;;;;;;5052780;28;20541;-76
2022/11/04 08:37:55;;;;;;;4.93;2.27;;;;;;;;;;5051359;28;20448;-77
2022/11/04 08:40:23;;;;;;;2.20;1.73;;;;;;;;;;5050940;28;20561;-76
2022/11/04 08:42:50;;;;;;;3.07;1.87;;;;;;;;;;5050238;28;20564;-77
2022/11/04 08:45:17;;;;;;;2.23;2.03;;;;;;;;;;5050963;28;20551;-77
2022/11/04 08:47:44;;;;;;;4.20;1.87;;;;;;;;;;5050599;28;20950;-77
2022/11/04 08:50:12;;;;;;;2.90;2.50;;;;;;;;;;5050757;28;20456;-77
2022/11/04 08:52:39;;;;;;;2.80;2.30;;;;;;;;;;5051184;28;20540;-77
2022/11/04 08:55:08;;;;;;;2.30;1.90;;;;;;;;;;5051120;28;20429;-76
2022/11/04 08:57:35;;;;;;;2.20;2.00;;;;;;;;;;5050817;28;20454;-76
2022/11/04 09:00:03;;;;;;;2.50;2.00;;;;;;;;;;5052450;28;20450;-77
2022/11/04 09:02:30;;;;;;;1.90;1.80;;;;;;;;;;5067169;28;20469;-76
2022/11/04 09:04:57;;;;;;;2.00;1.70;;;;;;;;;;5062945;28;20474;-77
2022/11/04 09:07:24;;;;;;;2.40;2.20;;;;;;;;;;5058211;28;20875;-77
2022/11/04 09:09:51;;;;;;;2.70;2.50;;;;;;;;;;5050783;28;20975;-77
2022/11/04 09:12:20;;;;;;;2.90;2.20;;;;;;;;;;5051110;28;20961;-76
2022/11/04 09:14:47;;;;;;;3.23;1.63;;;;;;;;;;5050953;28;20500;-77
2022/11/04 09:17:14;;;;;;;1.70;1.60;;;;;;;;;;5051240;28;20464;-76
2022/11/04 09:19:41;;;;;;;2.03;1.83;;;;;;;;;;5051023;28;20450;-76
2022/11/04 09:22:08;;;;;;;1.73;1.50;;;;;;;;;;5050677;28;20593;-76
2022/11/04 09:24:35;;;;;;;1.50;1.40;;;;;;;;;;5050704;28;20445;-76
2022/11/04 09:27:02;;;;;;;1.70;1.60;;;;;;;;;;5050511;28;20441;-76
2022/11/04 09:29:32;;;;;;;4.27;2.90;;;;;;;;;;5050482;28;20468;-76
2022/11/04 09:31:59;;;;;;;2.13;1.50;;;;;;;;;;5052812;28;20505;-76
2022/11/04 09:34:27;;;;;;;3.07;1.80;;;;;;;;;;5053989;28;20464;-76
2022/11/04 09:36:55;;;;;;;3.10;1.60;;;;;;;;;;5054192;28;20858;-77
2022/11/04 09:39:22;;;;;;;2.80;1.77;;;;;;;;;;5053730;28;21056;-76
2022/11/04 09:42:01;;;;;;;1.97;1.30;;;;;;;;;;5055695;28;20492;-77
2022/11/04 09:44:29;;;;;;;2.70;1.80;;;;;;;;;;5056846;28;20505;-76
2022/11/04 09:47:01;;;;;;;2.20;1.90;;;;;;;;;;5054399;28;20477;-76
2022/11/04 09:49:29;;;;;;;1.50;1.40;;;;;;;;;;5053985;28;20457;-76
2022/11/04 09:51:58;;;;;;;3.23;1.30;;;;;;;;;;5053666;28;20458;-76
2022/11/04 09:54:27;;;;;;;3.37;1.53;;;;;;;;;;5053352;28;20442;-77
2022/11/04 09:56:56;;;;;;;2.30;1.53;;;;;;;;;;5053210;28;20433;-76
2022/11/04 09:59:26;;;;;;;1.60;1.50;;;;;;;;;;5053515;28;20445;-76
2022/11/04 10:02:17;;;;;;;2.73;1.70;;;;;;;;;;5053247;28;20825;-77
2022/11/04 10:04:49;;;;;;;2.07;1.40;;;;;;;;;;5037499;28;20485;-77
2022/11/04 10:07:27;;;;;;;3.80;1.87;;;;;;;;;;5052930;28;20909;-76
2022/11/04 10:09:59;;;;;;;4.20;1.53;;;;;;;;;;5053173;28;20559;-76
2022/11/04 10:12:37;;;;;;;2.43;1.30;;;;;;;;;;5057865;28;20456;-77
2022/11/04 10:15:17;;;;;;;1.30;1.20;;;;;;;;;;5072964;28;20826;-77
2022/11/04 10:17:51;;;;;;;1.57;1.30;;;;;;;;;;5073209;28;20477;-76
2022/11/04 10:20:24;;;;;;;3.07;1.53;;;;;;;;;;5072856;28;20816;-76
2022/11/04 10:22:57;;;;;;;1.83;1.20;;;;;;;;;;5072335;28;20457;-76
2022/11/04 10:25:26;;;;;;;2.30;1.60;;;;;;;;;;5072912;28;21062;-77
2022/11/04 10:27:53;;;;;;;4.30;1.87;;;;;;;;;;5073001;28;20453;-76
2022/11/04 10:30:21;;;;;;;1.73;1.33;;;;;;;;;;5072826;28;20897;-76
2022/11/04 10:32:52;;;;;;;4.67;1.33;;;;;;;;;;5072101;28;20472;-77
2022/11/04 10:35:23;;;;;;;1.77;1.67;;;;;;;;;;5073397;28;20535;-76
2022/11/04 10:37:52;;;;;;;4.03;1.77;;;;;;;;;;5073008;28;20455;-77
2022/11/04 10:40:24;;;;;;;1.93;1.10;;;;;;;;;;5072462;28;20928;-76
2022/11/04 10:42:52;;;;;;;2.30;1.47;;;;;;;;;;5071104;28;21023;-76
2022/11/04 10:45:20;;;;;;;1.93;1.20;;;;;;;;;;5071948;28;20475;-76
2022/11/04 10:47:50;;;;;;;1.67;1.23;;;;;;;;;;5072555;28;20479;-76
2022/11/04 10:50:21;;;;;;;2.43;1.23;;;;;;;;;;5072190;28;20952;-76
2022/11/04 10:52:49;;;;;;;3.47;1.70;;;;;;;;;;5071755;28;20472;-75
2022/11/04 10:55:26;;;;;;;5.80;1.77;;;;;;;;;;5072087;28;20444;-75
2022/11/04 10:57:55;;;;;;;4.30;1.70;;;;;;;;;;5071710;28;20441;-76
2022/11/04 11:00:35;;;;;;;3.77;1.30;;;;;;;;;;5073131;28;20459;-75
2022/11/04 11:03:02;;;;;;;4.90;2.13;;;;;;;;;;5082990;28;20460;-76
2022/11/04 11:05:30;;;;;;;4.20;1.47;;;;;;;;;;5087146;28;20543;-76
2022/11/04 11:07:59;;;;;;;4.30;1.50;;;;;;;;;;5088449;28;20448;-75
2022/11/04 11:10:27;;;;;;;4.03;1.70;;;;;;;;;;5074860;28;20437;-76
2022/11/04 11:12:55;;;;;;;2.30;1.43;;;;;;;;;;5063356;28;20465;-77
2022/11/04 11:15:31;;;;;;;2.77;1.50;;;;;;;;;;5051807;28;20988;-76
2022/11/04 11:18:01;;;;;;;1.93;1.20;;;;;;;;;;5052291;28;20445;-76
2022/11/04 11:20:31;;;;;;;3.43;1.40;;;;;;;;;;5051884;28;20442;-76
2022/11/04 11:23:00;;;;;;;3.73;1.60;;;;;;;;;;5051057;28;20476;-76
2022/11/04 11:25:28;;;;;;;3.00;1.83;;;;;;;;;;5051398;28;20477;-76
2022/11/04 11:27:56;;;;;;;1.50;1.40;;;;;;;;;;5051187;28;20945;-76
2022/11/04 11:30:25;;;;;;;4.63;1.73;;;;;;;;;;5051511;28;20445;-77
2022/11/04 11:32:54;;;;;;;2.27;1.50;;;;;;;;;;5051111;28;20477;-77
2022/11/04 11:35:23;;;;;;;1.83;1.73;;;;;;;;;;5051156;28;20445;-77
2022/11/04 11:37:50;;;;;;;3.30;1.60;;;;;;;;;;5051449;28;20446;-76
2022/11/04 11:40:26;;;;;;;2.47;1.20;;;;;;;;;;5051563;28;20441;-76
2022/11/04 11:42:53;;;;;;;2.30;1.50;;;;;;;;;;5051484;28;20468;-77
2022/11/04 11:45:22;;;;;;;3.73;1.30;;;;;;;;;;5051562;28;20489;-77
2022/11/04 11:47:53;;;;;;;3.13;1.53;;;;;;;;;;5051490;28;20445;-76
2022/11/04 11:50:24;;;;;;;2.73;1.57;;;;;;;;;;5051738;28;20536;-78
2022/11/04 11:52:53;;;;;;;4.10;1.80;;;;;;;;;;5051199;28;20481;-76
2022/11/04 11:55:23;;;;;;;4.80;2.00;;;;;;;;;;5051588;28;20562;-77
2022/11/04 11:57:56;;;;;;;1.80;1.40;;;;;;;;;;5064886;28;21062;-76
2022/11/04 12:00:31;;;;;;;2.10;1.27;;;;;;;;;;5070930;28;20436;-77
2022/11/04 12:03:01;;;;;;;3.87;1.87;;;;;;;;;;5070438;28;20971;-77
2022/11/04 12:05:30;;;;;;;4.43;1.33;;;;;;;;;;5070768;28;20530;-76
2022/11/04 12:08:01;;;;;;;1.40;1.30;;;;;;;;;;5071210;28;20447;-76
2022/11/04 12:10:36;;;;;;;3.77;1.63;;;;;;;;;;5070669;28;20437;-77
2022/11/04 12:13:09;;;;;;;2.33;2.10;;;;;;;;;;5060064;28;21042;-76
2022/11/04 12:15:39;;;;;;;5.97;4.50;;;;;;;;;;5050635;28;20449;-76
2022/11/04 12:18:14;;;;;;;7.13;3.77;;;;;;;;;;5050536;28;20457;-77
2022/11/04 12:20:46;;;;;;;2.90;1.77;;;;;;;;;;5057665;28;20438;-76
2022/11/04 12:23:18;;;;;;;4.47;1.73;;;;;;;;;;5049871;28;20465;-76
2022/11/04 12:25:50;;;;;;;2.60;1.23;;;;;;;;;;5050427;28;20851;-76
2022/11/04 12:28:25;;;;;;;2.07;1.50;;;;;;;;;;5050668;28;21046;-76
2022/11/04 12:30:56;;;;;;;2.30;1.50;;;;;;;;;;5050341;28;20445;-76
2022/11/04 12:33:30;;;;;;;3.10;1.47;;;;;;;;;;5049716;28;20484;-76
2022/11/04 12:36:12;;;;;;;4.07;1.40;;;;;;;;;;5049761;28;20426;-77
2022/11/04 12:38:47;;;;;;;2.03;1.70;;;;;;;;;;5037280;28;20449;-76
2022/11/04 12:41:19;;;;;;;2.77;1.70;;;;;;;;;;5050150;28;20457;-76
2022/11/04 12:43:51;;;;;;;3.00;1.80;;;;;;;;;;5049686;28;21027;-76
2022/11/04 12:46:23;;;;;;;2.80;1.67;;;;;;;;;;5049960;28;21349;-77
2022/11/04 12:48:53;;;;;;;3.90;1.67;;;;;;;;;;5049812;28;20793;-76
2022/11/04 12:51:25;;;;;;;2.83;1.50;;;;;;;;;;5050202;28;20797;-77
2022/11/04 12:54:06;;;;;;;5.33;2.00;;;;;;;;;;5050082;28;21104;-76
2022/11/04 12:56:37;;;;;;;3.03;1.60;;;;;;;;;;5049652;28;20937;-77
2022/11/04 12:59:32;;;;;;;3.77;1.63;;;;;;;;;;5050278;28;20498;-76
2022/11/04 13:02:01;;;;;;;3.17;1.40;;;;;;;;;;5050026;28;20469;-76
2022/11/04 13:04:33;;;;;;;3.07;1.30;;;;;;;;;;5049375;28;20448;-77
2022/11/04 13:07:02;;;;;;;4.17;1.70;;;;;;;;;;5048958;28;20496;-76
2022/11/04 13:09:32;;;;;;;3.43;1.20;;;;;;;;;;5050092;28;20840;-76
2022/11/04 13:12:02;;;;;;;3.73;1.43;;;;;;;;;;5050091;28;20457;-76
2022/11/04 13:14:34;;;;;;;2.10;1.00;;;;;;;;;;5049528;28;20453;-76
2022/11/04 13:17:02;;;;;;;1.70;1.50;;;;;;;;;;5050189;28;20456;-76
2022/11/04 13:19:31;;;;;;;3.20;2.00;;;;;;;;;;5050114;28;20449;-77
2022/11/04 13:22:01;;;;;;;5.17;1.70;;;;;;;;;;5049742;28;20469;-76
2022/11/04 13:24:30;;;;;;;4.77;1.77;;;;;;;;;;5049382;28;20798;-77
2022/11/04 13:26:59;;;;;;;3.53;1.53;;;;;;;;;;5049821;28;20992;-76
2022/11/04 13:29:26;;;;;;;3.20;1.80;;;;;;;;;;5049430;28;20453;-77
2022/11/04 13:31:56;;;;;;;3.27;1.30;;;;;;;;;;5049772;28;20461;-76
2022/11/04 13:34:31;;;;;;;2.47;1.70;;;;;;;;;;5049635;28;20567;-77
2022/11/04 13:37:06;;;;;;;2.43;1.40;;;;;;;;;;5050873;28;20823;-76
2022/11/04 13:39:35;;;;;;;6.47;2.00;;;;;;;;;;5051269;28;20940;-77
2022/11/04 13:42:29;;;;;;;2.60;1.70;;;;;;;;;;5049947;28;20470;-76
2022/11/04 13:44:57;;;;;;;3.67;1.30;;;;;;;;;;5049834;28;20444;-76
2022/11/04 13:47:27;;;;;;;3.47;1.40;;;;;;;;;;5049815;28;20482;-77
2022/11/04 13:49:55;;;;;;;2.90;1.60;;;;;;;;;;5064263;28;20450;-77
2022/11/04 13:52:24;;;;;;;3.90;1.80;;;;;;;;;;5060395;28;20476;-76
2022/11/04 13:54:56;;;;;;;5.30;1.97;;;;;;;;;;5057191;28;20441;-76
2022/11/04 13:57:24;;;;;;;3.80;1.40;;;;;;;;;;5059324;28;20438;-76
2022/11/04 14:00:12;;;;;;;5.20;1.50;;;;;;;;;;5060864;28;20445;-76
2022/11/04 14:02:44;;;;;;;1.73;1.20;;;;;;;;;;5048309;28;20473;-77
2022/11/04 14:05:31;;;;;;;1.40;0.87;;;;;;;;;;5049497;28;20901;-76
2022/11/04 14:08:10;;;;;;;2.70;0.83;;;;;;;;;;5050279;28;20481;-76
2022/11/04 14:10:38;;;;;;;1.90;1.00;;;;;;;;;;5049493;28;20448;-76
2022/11/04 14:13:20;;;;;;;2.00;0.90;;;;;;;;;;5059248;28;20472;-76
2022/11/04 14:16:00;;;;;;;2.33;1.00;;;;;;;;;;5069575;28;20444;-76
2022/11/04 14:18:30;;;;;;;1.40;1.30;;;;;;;;;;5072605;28;20507;-76
2022/11/04 14:21:05;;;;;;;0.80;0.73;;;;;;;;;;5073488;28;20821;-76
2022/11/04 14:23:33;;;;;;;1.10;1.00;;;;;;;;;;5072842;28;20460;-77
2022/11/04 14:26:02;;;;;;;2.30;1.00;;;;;;;;;;5072979;28;20452;-76
2022/11/04 14:28:29;;;;;;;2.43;1.10;;;;;;;;;;5072889;28;20457;-76
2022/11/04 14:30:57;;;;;;;1.27;1.10;;;;;;;;;;5073072;28;20459;-76
2022/11/04 14:33:42;;;;;;;1.20;0.70;;;;;;;;;;5072087;28;20576;-76
2022/11/04 14:36:30;;;;;;;0.80;0.73;;;;;;;;;;5072607;28;20451;-76
2022/11/04 14:39:01;;;;;;;2.00;1.20;;;;;;;;;;5067666;28;20457;-76
2022/11/04 14:41:33;;;;;;;2.50;1.40;;;;;;;;;;5072594;28;20448;-75
2022/11/04 14:44:02;;;;;;;3.40;1.40;;;;;;;;;;5072335;28;20445;-76
2022/11/04 14:46:32;;;;;;;3.63;1.97;;;;;;;;;;5072294;28;20900;-76
2022/11/04 14:49:01;;;;;;;2.50;1.80;;;;;;;;;;5073033;28;20445;-77
2022/11/04 14:51:29;;;;;;;5.73;1.87;;;;;;;;;;5072493;28;20484;-76
2022/11/04 14:54:00;;;;;;;2.33;1.40;;;;;;;;;;5072434;28;20455;-77
2022/11/04 14:56:28;;;;;;;6.53;2.10;;;;;;;;;;5074520;28;20426;-77
2022/11/04 14:58:57;;;;;;;3.13;1.90;;;;;;;;;;5072232;28;20441;-77
2022/11/04 15:01:24;;;;;;;2.47;1.67;;;;;;;;;;5072381;28;20962;-77
2022/11/04 15:03:52;;;;;;;3.07;1.70;;;;;;;;;;5071734;28;20464;-77
2022/11/04 15:06:24;;;;;;;1.70;1.60;;;;;;;;;;5072200;28;20456;-77
2022/11/04 15:08:52;;;;;;;1.60;1.50;;;;;;;;;;5071975;28;20437;-77
2022/11/04 15:12:49;;;;;;;1.20;1.10;;;;;;;;;;5071836;28;20445;-76
2022/11/04 15:14:14;;;;;;;1.40;1.30;;;;;;;;;;5071312;28;20912;-77
2022/11/04 15:16:41;;;;;;;2.30;1.10;;;;;;;;;;5072188;28;20678;-76
2022/11/04 15:19:09;;;;;;;4.30;1.40;;;;;;;;;;5071434;28;20936;-76
2022/11/04 15:21:39;;;;;;;1.50;1.40;;;;;;;;;;5071711;28;20857;-76
2022/11/04 15:24:06;;;;;;;1.50;1.40;;;;;;;;;;5070927;28;20931;-77
2022/11/04 15:26:35;;;;;;;2.47;1.73;;;;;;;;;;5071412;28;20484;-78
2022/11/04 15:29:03;;;;;;;3.20;1.50;;;;;;;;;;5071012;28;20440;-77
2022/11/04 15:31:32;;;;;;;4.07;1.70;;;;;;;;;;5071775;28;20567;-77